Time;durP1;ratioP1;P1;durP2;ratioP2;P2;SDS_P1;SDS_P2;PMS_P1;PMS_P2;Temp;Humidity;BMP_temperature;BMP_pressure;BME280_temperature;BME280_humidity;BME280_pressure;Samples;Min_cycle;Max_cycle;Signal;HPM_P1;HPM_P2
2021/11/25 00:00:40;;;;;;;18.80;10.65;;;2.00;99.90;;;;;;5046147;28;20029;-62
2021/11/25 00:03:07;;;;;;;17.75;9.68;;;2.10;99.90;;;;;;5047821;28;20037;-62
2021/11/25 00:05:33;;;;;;;22.35;12.27;;;2.20;99.90;;;;;;5050152;28;20032;-63
2021/11/25 00:08:01;;;;;;;17.38;11.10;;;2.20;99.90;;;;;;5043911;28;20037;-63
2021/11/25 00:10:27;;;;;;;20.70;11.48;;;2.20;99.90;;;;;;5032140;28;20036;-63
2021/11/25 00:12:54;;;;;;;15.88;10.55;;;2.10;99.90;;;;;;5042568;28;20029;-62
2021/11/25 00:15:20;;;;;;;19.20;10.77;;;1.90;99.90;;;;;;5048132;28;20025;-62
2021/11/25 00:17:46;;;;;;;21.45;10.50;;;1.80;99.90;;;;;;5044510;28;20055;-60
2021/11/25 00:20:12;;;;;;;20.15;10.48;;;1.70;99.90;;;;;;5042172;28;20488;-61
2021/11/25 00:22:39;;;;;;;22.17;12.35;;;1.80;99.90;;;;;;5044660;28;20017;-60
2021/11/25 00:25:06;;;;;;;21.40;11.63;;;1.80;99.90;;;;;;5043809;28;20028;-64
2021/11/25 00:27:31;;;;;;;16.70;10.80;;;1.90;99.90;;;;;;5048579;28;20025;-61
2021/11/25 00:29:57;;;;;;;20.55;12.00;;;1.90;99.90;;;;;;5043334;28;20036;-61
2021/11/25 00:32:22;;;;;;;21.40;11.88;;;2.00;99.90;;;;;;5047173;28;20036;-61
2021/11/25 00:34:48;;;;;;;18.85;12.48;;;2.10;99.90;;;;;;5040778;28;20445;-59
2021/11/25 00:37:14;;;;;;;23.27;12.38;;;2.10;99.90;;;;;;5036335;28;20611;-62
2021/11/25 00:39:40;;;;;;;20.23;11.65;;;2.10;99.90;;;;;;5042843;28;20025;-61
2021/11/25 00:42:06;;;;;;;18.95;11.55;;;2.00;99.90;;;;;;5046254;28;20033;-62
2021/11/25 00:44:31;;;;;;;19.13;12.48;;;2.00;99.90;;;;;;5042051;28;20029;-64
2021/11/25 00:46:57;;;;;;;18.80;12.02;;;1.90;99.90;;;;;;5038814;28;20587;-61
2021/11/25 00:49:22;;;;;;;19.67;12.43;;;2.00;99.90;;;;;;5044569;28;20029;-63
2021/11/25 00:51:48;;;;;;;21.50;12.10;;;2.00;99.90;;;;;;5045563;28;20040;-64
2021/11/25 00:54:13;;;;;;;19.25;11.65;;;2.00;99.90;;;;;;5020826;28;20029;-63
2021/11/25 00:56:39;;;;;;;21.63;11.68;;;2.10;99.90;;;;;;5043673;28;20030;-63
2021/11/25 00:59:05;;;;;;;21.00;11.55;;;2.20;99.90;;;;;;5041030;28;20036;-63
2021/11/25 01:01:31;;;;;;;19.55;12.90;;;2.20;99.90;;;;;;5048090;28;20032;-63
2021/11/25 01:03:56;;;;;;;18.55;11.10;;;2.30;99.90;;;;;;5044937;28;20108;-64
2021/11/25 01:06:22;;;;;;;22.08;12.63;;;2.30;99.90;;;;;;5039608;28;20093;-63
2021/11/25 01:08:47;;;;;;;22.65;12.68;;;2.30;99.90;;;;;;5040493;28;20025;-63
2021/11/25 01:11:13;;;;;;;17.58;11.25;;;2.30;99.90;;;;;;5047966;28;20025;-61
2021/11/25 01:13:40;;;;;;;22.88;11.80;;;2.30;99.90;;;;;;5040218;28;20398;-63
2021/11/25 01:16:05;;;;;;;17.92;11.18;;;2.30;99.90;;;;;;5048683;28;20037;-63
2021/11/25 01:18:31;;;;;;;20.83;11.20;;;2.30;99.90;;;;;;5043736;28;20059;-64
2021/11/25 01:20:56;;;;;;;18.67;12.00;;;2.30;99.90;;;;;;5049809;28;20037;-63
2021/11/25 01:23:26;;;;;;;20.02;12.45;;;2.40;99.90;;;;;;5039463;28;20910;-64
2021/11/25 01:25:53;;;;;;;20.17;11.75;;;2.50;99.90;;;;;;5047642;28;20461;-64
2021/11/25 01:28:20;;;;;;;19.70;12.43;;;2.50;99.90;;;;;;5038768;28;21052;-64
2021/11/25 01:30:48;;;;;;;24.20;12.45;;;2.60;99.90;;;;;;5041853;28;20033;-64
2021/11/25 01:33:14;;;;;;;19.13;11.10;;;2.60;99.90;;;;;;5038393;28;20033;-64
2021/11/25 01:35:40;;;;;;;18.95;11.73;;;2.70;99.90;;;;;;5047024;28;20040;-62
2021/11/25 01:38:07;;;;;;;18.65;11.98;;;2.70;99.90;;;;;;5021536;28;20482;-63
2021/11/25 01:40:33;;;;;;;21.25;11.80;;;2.60;99.90;;;;;;5038883;28;20112;-63
2021/11/25 01:42:59;;;;;;;18.92;11.48;;;2.70;99.90;;;;;;5043615;28;20557;-64
2021/11/25 01:45:26;;;;;;;17.55;10.45;;;2.60;99.90;;;;;;5045917;28;20048;-64
2021/11/25 01:47:53;;;;;;;17.75;11.05;;;2.40;99.90;;;;;;5026964;28;20017;-63
2021/11/25 01:50:20;;;;;;;16.70;10.75;;;2.30;99.90;;;;;;5045068;28;20037;-63
2021/11/25 01:52:46;;;;;;;19.00;10.45;;;2.30;99.90;;;;;;5047069;28;20028;-63
2021/11/25 01:55:13;;;;;;;17.38;10.68;;;2.30;99.90;;;;;;5042956;28;20037;-62
2021/11/25 01:57:39;;;;;;;20.08;10.90;;;2.20;99.90;;;;;;5043903;28;20071;-62
2021/11/25 02:00:12;;;;;;;18.90;10.98;;;2.30;99.90;;;;;;5043760;28;20037;-62
2021/11/25 02:02:39;;;;;;;21.77;11.50;;;2.20;99.90;;;;;;5043959;28;20476;-64
2021/11/25 02:05:05;;;;;;;17.42;11.77;;;2.10;99.90;;;;;;5040068;28;20040;-64
2021/11/25 02:07:31;;;;;;;20.38;12.10;;;2.00;99.90;;;;;;5045523;28;20151;-62
2021/11/25 02:09:57;;;;;;;21.35;11.93;;;1.90;99.90;;;;;;5046350;28;20104;-63
2021/11/25 02:12:23;;;;;;;19.52;11.77;;;2.00;99.90;;;;;;5044781;28;20028;-64
2021/11/25 02:14:48;;;;;;;21.98;13.00;;;1.90;99.90;;;;;;5043110;28;20045;-64
2021/11/25 02:17:14;;;;;;;19.65;12.00;;;1.90;99.90;;;;;;5044248;28;20040;-64
2021/11/25 02:19:42;;;;;;;19.55;11.57;;;1.90;99.90;;;;;;5043956;28;20025;-64
2021/11/25 02:22:08;;;;;;;20.92;12.48;;;2.00;99.90;;;;;;5049089;28;20037;-63
2021/11/25 02:24:35;;;;;;;18.60;11.85;;;2.00;99.90;;;;;;5048107;28;20017;-62
2021/11/25 02:27:00;;;;;;;20.63;12.68;;;2.00;99.90;;;;;;5051180;28;20062;-64
2021/11/25 02:29:26;;;;;;;22.15;13.10;;;2.00;99.90;;;;;;5047418;28;20033;-62
2021/11/25 02:31:52;;;;;;;22.73;12.95;;;2.00;99.90;;;;;;5045309;28;20052;-63
2021/11/25 02:34:17;;;;;;;21.20;11.75;;;2.00;99.90;;;;;;5048798;28;20104;-64
2021/11/25 02:36:43;;;;;;;22.73;12.40;;;2.10;99.90;;;;;;5050147;28;20441;-64
2021/11/25 02:39:09;;;;;;;22.67;12.88;;;2.20;99.90;;;;;;5044241;28;20056;-63
2021/11/25 02:41:34;;;;;;;17.63;12.07;;;2.20;99.90;;;;;;5050913;28;20040;-64
2021/11/25 02:44:00;;;;;;;22.40;11.98;;;2.20;99.90;;;;;;5044371;28;20024;-64
2021/11/25 02:46:26;;;;;;;24.08;12.98;;;2.20;99.90;;;;;;5045240;28;20025;-64
2021/11/25 02:48:54;;;;;;;20.63;11.95;;;2.20;99.90;;;;;;5048656;28;20021;-64
2021/11/25 02:51:23;;;;;;;22.23;11.40;;;2.20;99.90;;;;;;5050678;28;20116;-64
2021/11/25 02:53:50;;;;;;;24.38;12.23;;;2.20;99.90;;;;;;5049236;28;20120;-64
2021/11/25 02:56:21;;;;;;;18.98;11.00;;;2.10;99.90;;;;;;5049747;28;20495;-63
2021/11/25 02:58:49;;;;;;;20.55;12.77;;;2.20;99.90;;;;;;5047546;28;20071;-62
2021/11/25 03:01:29;;;;;;;21.42;11.63;;;2.10;99.90;;;;;;5047284;28;20094;-62
2021/11/25 03:03:55;;;;;;;19.77;11.77;;;2.20;99.90;;;;;;5041790;28;20057;-62
2021/11/25 03:06:21;;;;;;;23.02;11.95;;;2.20;99.90;;;;;;5040998;28;20025;-61
2021/11/25 03:08:47;;;;;;;22.45;12.73;;;2.20;99.90;;;;;;5046987;28;20025;-63
2021/11/25 03:11:15;;;;;;;21.27;12.80;;;2.30;99.90;;;;;;5043018;28;20029;-64
2021/11/25 03:13:46;;;;;;;18.85;12.27;;;2.30;99.90;;;;;;5042676;28;20112;-63
2021/11/25 03:16:14;;;;;;;23.70;12.95;;;2.20;99.90;;;;;;5045503;28;20083;-64
2021/11/25 03:18:40;;;;;;;23.85;14.73;;;2.20;99.90;;;;;;5049143;28;20032;-62
2021/11/25 03:21:07;;;;;;;26.98;13.80;;;2.20;99.90;;;;;;5051956;28;20040;-63
2021/11/25 03:23:34;;;;;;;16.50;11.27;;;2.20;99.90;;;;;;5048277;28;20116;-63
2021/11/25 03:26:02;;;;;;;23.65;13.40;;;2.30;99.90;;;;;;5049225;28;20751;-64
2021/11/25 03:28:28;;;;;;;20.17;13.45;;;2.30;99.90;;;;;;5040422;28;20021;-63
2021/11/25 03:30:54;;;;;;;21.80;13.18;;;2.40;99.90;;;;;;5050267;28;20025;-62
2021/11/25 03:33:23;;;;;;;21.08;12.40;;;2.50;99.90;;;;;;5041931;28;20061;-63
2021/11/25 03:35:49;;;;;;;21.70;12.45;;;2.50;99.90;;;;;;5046324;28;20040;-63
2021/11/25 03:38:15;;;;;;;23.52;13.43;;;2.50;99.90;;;;;;5046862;28;20351;-63
2021/11/25 03:40:40;;;;;;;26.35;13.13;;;2.50;99.90;;;;;;5046658;28;20040;-63
2021/11/25 03:43:06;;;;;;;29.50;14.10;;;2.50;99.90;;;;;;5046571;28;20041;-64
2021/11/25 03:45:32;;;;;;;20.98;11.48;;;2.40;99.90;;;;;;5049707;28;20021;-64
2021/11/25 03:47:57;;;;;;;21.25;12.20;;;2.40;99.90;;;;;;5043387;28;20040;-64
2021/11/25 03:50:23;;;;;;;21.13;12.48;;;2.40;99.90;;;;;;5028429;28;20152;-63
2021/11/25 03:52:49;;;;;;;19.23;12.18;;;2.30;99.90;;;;;;5042893;28;20051;-63
2021/11/25 03:55:14;;;;;;;19.27;12.27;;;2.30;99.90;;;;;;5045449;28;20641;-64
2021/11/25 03:57:41;;;;;;;20.30;11.52;;;2.30;99.90;;;;;;5050278;28;20509;-63
2021/11/25 04:00:11;;;;;;;23.45;11.40;;;2.40;99.90;;;;;;5050557;28;20064;-64
2021/11/25 04:02:37;;;;;;;21.42;13.15;;;2.50;99.90;;;;;;5068203;22;20319;-61
2021/11/25 04:05:03;;;;;;;23.85;13.35;;;2.50;99.90;;;;;;5049819;28;20493;-60
2021/11/25 04:07:29;;;;;;;23.08;12.85;;;2.60;99.90;;;;;;5042330;28;20503;-61
2021/11/25 04:09:54;;;;;;;25.40;13.93;;;2.60;99.90;;;;;;5045757;28;20100;-60
2021/11/25 04:12:20;;;;;;;25.15;12.50;;;2.60;99.90;;;;;;5047494;28;20068;-61
2021/11/25 04:14:46;;;;;;;24.85;14.00;;;2.60;99.90;;;;;;5029505;28;20056;-62
2021/11/25 04:17:12;;;;;;;22.80;13.52;;;2.60;99.90;;;;;;5030997;28;20026;-61
2021/11/25 04:19:38;;;;;;;18.67;11.40;;;2.70;99.90;;;;;;5031997;28;20024;-62
2021/11/25 04:22:04;;;;;;;24.63;13.50;;;2.80;99.90;;;;;;5031847;28;20037;-61
2021/11/25 04:24:29;;;;;;;22.02;12.65;;;2.90;99.90;;;;;;5030679;28;20029;-59
2021/11/25 04:26:55;;;;;;;23.65;12.48;;;2.90;99.90;;;;;;5031807;28;20026;-60
2021/11/25 04:29:23;;;;;;;25.15;13.02;;;3.00;99.90;;;;;;5031301;28;20495;-62
2021/11/25 04:37:16;;;;;;;24.33;13.40;;;2.90;99.90;;;;;;5037807;28;20059;-61
2021/11/25 04:39:42;;;;;;;24.00;12.85;;;3.00;99.90;;;;;;5031521;28;20527;-60
2021/11/25 04:42:09;;;;;;;22.88;13.77;;;3.00;99.90;;;;;;5030253;28;20451;-62
2021/11/25 04:44:35;;;;;;;24.83;12.70;;;3.00;99.90;;;;;;5034005;28;20030;-62
2021/11/25 04:47:01;;;;;;;21.48;12.18;;;3.00;99.90;;;;;;5030207;28;20554;-61
2021/11/25 04:49:26;;;;;;;23.23;13.80;;;2.90;99.90;;;;;;5034169;28;20018;-61
2021/11/25 04:51:52;;;;;;;21.38;13.23;;;2.90;99.90;;;;;;5040424;28;20108;-62
2021/11/25 04:54:17;;;;;;;30.85;13.90;;;2.90;99.90;;;;;;5039120;28;20549;-62
2021/11/25 04:56:43;;;;;;;27.33;13.88;;;2.90;99.90;;;;;;5032604;28;20080;-60
2021/11/25 04:59:08;;;;;;;29.77;14.00;;;2.90;99.90;;;;;;5027880;28;20080;-61
2021/11/25 05:01:34;;;;;;;25.10;12.57;;;2.90;99.90;;;;;;5031923;28;20056;-61
2021/11/25 05:04:01;;;;;;;22.50;13.55;;;3.00;99.90;;;;;;5027894;28;20041;-60
2021/11/25 05:06:26;;;;;;;24.17;13.55;;;3.00;99.90;;;;;;5031338;28;20071;-61
2021/11/25 05:08:52;;;;;;;25.15;12.95;;;3.10;99.90;;;;;;5028869;28;20024;-61
2021/11/25 05:11:18;;;;;;;22.35;13.65;;;3.20;99.90;;;;;;5031482;28;20072;-60
2021/11/25 05:13:43;;;;;;;19.20;12.13;;;3.30;99.90;;;;;;5036296;28;20502;-63
2021/11/25 05:16:09;;;;;;;21.67;12.73;;;3.40;99.90;;;;;;5027051;28;20033;-63
2021/11/25 05:18:34;;;;;;;21.90;13.00;;;3.30;99.90;;;;;;5028825;28;20021;-63
2021/11/25 05:21:00;;;;;;;20.33;12.93;;;3.30;99.90;;;;;;5030301;28;20061;-62
2021/11/25 05:23:27;;;;;;;21.50;12.55;;;3.30;99.90;;;;;;5028070;28;20101;-64
2021/11/25 05:25:55;;;;;;;24.63;13.88;;;3.30;99.90;;;;;;5026991;28;20132;-62
2021/11/25 05:28:20;;;;;;;23.40;13.27;;;3.30;99.90;;;;;;5035802;28;20026;-62
2021/11/25 05:30:46;;;;;;;22.48;13.18;;;3.30;99.90;;;;;;5037098;28;20029;-63
2021/11/25 05:33:12;;;;;;;25.48;14.02;;;3.30;99.90;;;;;;5027161;28;20029;-62
2021/11/25 05:35:37;;;;;;;25.60;14.20;;;3.30;99.90;;;;;;5031370;28;20387;-62
2021/11/25 05:38:04;;;;;;;27.75;14.88;;;3.20;99.90;;;;;;5037193;28;20114;-62
2021/11/25 05:40:30;;;;;;;30.42;15.65;;;3.20;99.90;;;;;;5027071;28;20408;-62
2021/11/25 05:42:56;;;;;;;26.75;14.73;;;3.30;99.90;;;;;;5037046;28;20078;-62
2021/11/25 05:45:22;;;;;;;27.25;14.25;;;3.30;99.90;;;;;;5026386;28;20037;-62
2021/11/25 05:47:48;;;;;;;26.05;14.50;;;3.40;99.90;;;;;;5022884;28;20411;-63
2021/11/25 05:50:18;;;;;;;25.30;14.75;;;3.50;99.90;;;;;;5024195;28;20026;-63
2021/11/25 05:52:45;;;;;;;25.13;15.63;;;3.50;99.90;;;;;;5027875;28;20025;-62
2021/11/25 05:55:11;;;;;;;25.10;14.45;;;3.50;99.90;;;;;;5032695;28;20507;-62
2021/11/25 05:57:37;;;;;;;22.77;13.23;;;3.50;99.90;;;;;;5027326;28;20052;-63
2021/11/25 06:00:10;;;;;;;26.38;15.18;;;3.50;99.90;;;;;;5028891;28;20183;-62
2021/11/25 06:02:37;;;;;;;26.00;15.07;;;3.40;99.90;;;;;;5032826;28;20022;-63
2021/11/25 06:05:03;;;;;;;24.42;14.65;;;3.40;99.90;;;;;;5035829;28;20028;-62
2021/11/25 06:07:29;;;;;;;24.52;15.07;;;3.40;99.90;;;;;;5031995;28;20025;-62
2021/11/25 06:09:54;;;;;;;24.48;15.13;;;3.50;99.90;;;;;;5030014;28;20017;-62
2021/11/25 06:12:20;;;;;;;25.40;15.13;;;3.40;99.90;;;;;;5030597;28;20392;-63
2021/11/25 06:14:45;;;;;;;26.80;16.20;;;3.40;99.90;;;;;;5030477;28;20035;-62
2021/11/25 06:17:11;;;;;;;33.53;17.67;;;3.40;99.90;;;;;;5031529;28;20041;-64
2021/11/25 06:19:36;;;;;;;28.58;16.38;;;3.30;99.90;;;;;;5030182;28;20021;-62
2021/11/25 06:22:02;;;;;;;27.58;16.08;;;3.30;99.90;;;;;;5028218;28;20105;-63
2021/11/25 06:24:28;;;;;;;29.25;16.10;;;3.30;99.90;;;;;;5032226;28;20076;-62
2021/11/25 06:26:53;;;;;;;29.75;16.45;;;3.20;99.90;;;;;;5029609;28;20025;-62
2021/11/25 06:29:19;;;;;;;29.63;15.43;;;3.20;99.90;;;;;;5028452;28;20060;-63
2021/11/25 06:31:45;;;;;;;32.03;16.23;;;3.30;99.90;;;;;;5039683;28;20176;-63
2021/11/25 06:34:11;;;;;;;36.30;18.33;;;3.30;99.90;;;;;;5029390;28;20561;-63
2021/11/25 06:36:38;;;;;;;30.60;17.63;;;3.30;99.90;;;;;;5034462;28;20049;-63
2021/11/25 06:39:05;;;;;;;38.95;18.10;;;3.30;99.90;;;;;;5029298;28;20033;-63
2021/11/25 06:41:30;;;;;;;44.72;23.52;;;3.30;99.90;;;;;;5029560;28;20491;-62
2021/11/25 06:43:56;;;;;;;40.42;20.83;;;3.30;99.90;;;;;;5030477;28;20025;-63
2021/11/25 06:46:22;;;;;;;44.60;23.08;;;3.30;99.90;;;;;;5030219;28;20518;-62
2021/11/25 06:48:47;;;;;;;39.70;22.77;;;3.30;99.90;;;;;;5029032;28;20030;-63
2021/11/25 06:51:13;;;;;;;38.90;21.20;;;3.40;99.90;;;;;;5029978;28;20117;-63
2021/11/25 06:53:38;;;;;;;34.28;20.55;;;3.40;99.90;;;;;;5029264;28;20061;-63
2021/11/25 06:56:04;;;;;;;35.65;20.83;;;3.40;99.90;;;;;;5034097;28;20068;-64
2021/11/25 06:58:30;;;;;;;38.53;21.65;;;3.40;99.90;;;;;;5046749;28;20029;-63
2021/11/25 07:00:56;;;;;;;40.55;21.83;;;3.50;99.90;;;;;;5041165;28;20034;-63
2021/11/25 07:03:22;;;;;;;40.05;21.38;;;3.40;99.90;;;;;;5031899;28;20029;-63
2021/11/25 07:05:47;;;;;;;37.67;21.38;;;3.40;99.90;;;;;;5033972;28;20387;-63
2021/11/25 07:08:13;;;;;;;41.58;20.92;;;3.30;99.90;;;;;;5033464;28;20440;-62
2021/11/25 07:10:38;;;;;;;39.97;20.35;;;3.30;99.90;;;;;;5032666;28;20036;-63
2021/11/25 07:13:04;;;;;;;40.47;22.30;;;3.30;99.90;;;;;;5033179;28;20136;-63
2021/11/25 07:15:30;;;;;;;42.78;22.25;;;3.30;99.90;;;;;;5033377;28;20403;-63
2021/11/25 07:17:56;;;;;;;44.60;23.05;;;3.30;99.90;;;;;;5033743;28;20083;-62
2021/11/25 07:20:22;;;;;;;45.08;22.52;;;3.30;99.90;;;;;;5046311;28;20102;-61
2021/11/25 07:22:48;;;;;;;41.10;22.50;;;3.30;99.90;;;;;;5034445;28;20084;-64
2021/11/25 07:25:16;;;;;;;43.35;23.17;;;3.20;99.90;;;;;;5032072;28;20026;-62
2021/11/25 07:27:43;;;;;;;42.92;24.55;;;3.20;99.90;;;;;;5026416;28;20477;-64
2021/11/25 07:30:11;;;;;;;40.80;24.08;;;3.10;99.90;;;;;;5033891;28;20123;-62
2021/11/25 07:32:37;;;;;;;47.15;25.20;;;3.10;99.90;;;;;;5046632;28;20043;-62
2021/11/25 07:35:05;;;;;;;43.03;23.58;;;3.00;99.90;;;;;;5035986;28;20487;-62
2021/11/25 07:37:30;;;;;;;46.08;24.63;;;3.00;99.90;;;;;;5032408;28;20043;-63
2021/11/25 07:39:56;;;;;;;51.28;25.05;;;3.00;99.90;;;;;;5031680;28;20112;-63
2021/11/25 07:42:21;;;;;;;50.55;25.00;;;2.90;99.90;;;;;;5032946;28;20069;-61
2021/11/25 07:44:47;;;;;;;49.22;25.80;;;2.90;99.90;;;;;;5040171;28;20029;-62
2021/11/25 07:47:13;;;;;;;49.05;23.83;;;2.80;99.90;;;;;;5049192;28;20079;-63
2021/11/25 07:49:38;;;;;;;51.72;26.73;;;2.70;99.90;;;;;;5035228;28;20478;-63
2021/11/25 07:52:07;;;;;;;51.40;26.17;;;2.60;99.90;;;;;;5037546;28;20033;-63
2021/11/25 07:54:33;;;;;;;52.90;25.75;;;2.60;99.90;;;;;;5040347;28;20033;-63
2021/11/25 07:57:01;;;;;;;47.63;25.85;;;2.60;99.90;;;;;;5032001;28;20032;-63
2021/11/25 07:59:27;;;;;;;52.88;26.23;;;2.60;99.90;;;;;;5032139;28;20018;-62
2021/11/25 08:01:55;;;;;;;50.63;25.30;;;2.70;99.90;;;;;;5032634;28;20052;-64
2021/11/25 08:04:21;;;;;;;51.15;25.73;;;2.70;99.90;;;;;;5037230;28;20472;-63
2021/11/25 08:06:46;;;;;;;48.58;25.65;;;2.70;99.90;;;;;;5032180;28;20068;-64
2021/11/25 08:09:12;;;;;;;48.78;25.13;;;2.70;99.90;;;;;;5030315;28;20103;-62
2021/11/25 08:11:38;;;;;;;50.90;25.27;;;2.70;99.90;;;;;;5029363;28;20105;-63
2021/11/25 08:14:03;;;;;;;51.63;26.13;;;2.70;99.90;;;;;;5031508;28;20029;-62
2021/11/25 08:16:29;;;;;;;50.40;26.75;;;2.60;99.90;;;;;;5038506;28;20188;-63
2021/11/25 08:18:54;;;;;;;57.90;26.67;;;2.60;99.90;;;;;;5045506;28;20091;-64
2021/11/25 08:21:22;;;;;;;49.45;25.42;;;2.70;99.90;;;;;;5031172;28;20030;-63
2021/11/25 08:23:48;;;;;;;47.17;24.48;;;2.80;99.90;;;;;;5031316;28;20052;-63
2021/11/25 08:26:13;;;;;;;54.67;26.42;;;2.90;99.90;;;;;;5032596;28;20053;-63
2021/11/25 08:28:41;;;;;;;47.95;26.67;;;2.90;99.90;;;;;;5048885;28;20036;-62
2021/11/25 08:31:07;;;;;;;57.70;27.38;;;3.00;99.90;;;;;;5038710;28;20025;-64
2021/11/25 08:33:34;;;;;;;52.38;26.45;;;3.00;99.90;;;;;;5026368;28;20029;-62
2021/11/25 08:36:00;;;;;;;48.83;25.05;;;3.10;99.90;;;;;;5030024;28;20034;-62
2021/11/25 08:38:28;;;;;;;48.22;24.73;;;3.10;99.90;;;;;;5031435;28;20120;-64
2021/11/25 08:40:55;;;;;;;50.65;26.38;;;3.30;99.90;;;;;;5040629;28;20025;-63
2021/11/25 08:43:21;;;;;;;49.42;26.27;;;3.40;99.90;;;;;;5045895;28;20022;-64
2021/11/25 08:45:47;;;;;;;52.67;25.13;;;3.50;99.90;;;;;;5031670;28;20427;-63
2021/11/25 08:48:12;;;;;;;48.47;25.23;;;3.50;99.90;;;;;;5038906;28;20163;-64
2021/11/25 08:50:38;;;;;;;49.20;25.10;;;3.60;99.90;;;;;;5041560;28;20718;-63
2021/11/25 08:53:03;;;;;;;58.83;26.38;;;3.60;99.90;;;;;;5031479;28;20428;-62
2021/11/25 08:55:34;;;;;;;50.85;25.58;;;3.70;99.90;;;;;;5030735;28;20080;-63
2021/11/25 08:58:00;;;;;;;46.17;25.00;;;3.70;99.90;;;;;;5035878;28;20112;-64
2021/11/25 09:00:26;;;;;;;51.88;25.02;;;3.70;99.90;;;;;;5019261;28;20614;-66
2021/11/25 09:02:52;;;;;;;49.67;25.42;;;3.80;99.90;;;;;;5028105;28;20055;-64
2021/11/25 09:05:18;;;;;;;47.88;25.15;;;3.80;99.90;;;;;;5026465;28;20025;-64
2021/11/25 09:07:43;;;;;;;55.08;27.35;;;3.80;99.90;;;;;;5027709;28;20036;-64
2021/11/25 09:10:10;;;;;;;51.28;26.67;;;3.90;99.90;;;;;;5031295;28;20025;-63
2021/11/25 09:12:36;;;;;;;54.92;27.00;;;3.90;99.90;;;;;;5031878;28;20025;-64
2021/11/25 09:15:02;;;;;;;56.10;27.75;;;4.00;99.90;;;;;;5037904;28;20025;-62
2021/11/25 09:17:28;;;;;;;50.65;26.38;;;4.00;99.90;;;;;;5022220;28;20385;-64
2021/11/25 09:19:54;;;;;;;49.97;26.60;;;4.10;99.90;;;;;;5014157;28;20071;-61
2021/11/25 09:22:19;;;;;;;50.70;26.20;;;4.10;99.90;;;;;;5012159;28;20033;-63
2021/11/25 09:24:46;;;;;;;51.08;26.95;;;4.20;99.90;;;;;;5013233;28;20721;-64
2021/11/25 09:27:14;;;;;;;59.20;27.52;;;4.30;99.90;;;;;;5015824;28;20495;-64
2021/11/25 09:29:40;;;;;;;56.08;27.30;;;4.40;99.90;;;;;;5011059;28;20126;-65
2021/11/25 09:32:06;;;;;;;50.95;25.85;;;4.40;99.90;;;;;;5010589;28;20028;-64
2021/11/25 09:34:32;;;;;;;47.33;24.08;;;4.40;99.90;;;;;;5012803;28;20034;-64
2021/11/25 09:36:58;;;;;;;48.63;24.75;;;4.50;99.90;;;;;;5013495;28;20157;-64
2021/11/25 09:39:27;;;;;;;44.05;25.38;;;4.40;99.90;;;;;;5011942;28;20456;-64
2021/11/25 09:41:54;;;;;;;56.08;25.88;;;4.30;99.90;;;;;;5013170;28;20030;-63
2021/11/25 09:44:20;;;;;;;54.55;25.30;;;4.40;99.90;;;;;;5013359;28;20029;-63
2021/11/25 09:46:47;;;;;;;48.35;26.23;;;4.30;99.90;;;;;;5014011;28;20562;-62
2021/11/25 09:49:13;;;;;;;56.75;26.50;;;4.30;99.90;;;;;;5027810;28;20087;-63
2021/11/25 09:51:39;;;;;;;51.42;25.98;;;4.40;99.90;;;;;;5013696;28;20033;-64
2021/11/25 09:54:05;;;;;;;50.72;25.60;;;4.40;99.90;;;;;;5013865;28;20042;-64
2021/11/25 09:56:30;;;;;;;51.75;26.08;;;4.50;99.90;;;;;;5013969;28;20439;-65
2021/11/25 09:58:56;;;;;;;54.47;26.02;;;4.60;99.90;;;;;;5012987;28;20064;-63
2021/11/25 10:03:54;;;;;;;57.30;24.85;;;4.90;99.90;;;;;;5027438;28;20048;-63
2021/11/25 10:06:23;;;;;;;48.78;25.40;;;4.90;99.90;;;;;;5028114;28;20029;-63
2021/11/25 10:08:52;;;;;;;44.67;24.35;;;4.90;99.90;;;;;;5026177;28;20055;-63
2021/11/25 10:11:20;;;;;;;48.83;23.83;;;5.00;99.90;;;;;;5030621;28;20456;-63
2021/11/25 10:13:53;;;;;;;45.47;24.50;;;5.10;99.90;;;;;;5031017;28;20041;-63
2021/11/25 10:16:23;;;;;;;46.30;25.92;;;5.30;99.90;;;;;;5030504;28;20086;-63
2021/11/25 10:18:48;;;;;;;52.28;27.02;;;5.20;99.90;;;;;;5029550;28;20032;-63
2021/11/25 10:21:17;;;;;;;48.72;25.85;;;5.30;99.90;;;;;;5029269;28;20098;-63
2021/11/25 10:23:45;;;;;;;48.60;26.35;;;5.30;99.90;;;;;;5029428;28;20442;-63
2021/11/25 10:26:26;;;;;;;52.25;28.65;;;5.30;99.90;;;;;;5030388;28;20025;-63
2021/11/25 10:29:03;;;;;;;57.28;29.40;;;5.30;99.90;;;;;;5031052;28;20565;-63
2021/11/25 10:31:31;;;;;;;52.33;28.73;;;5.40;99.90;;;;;;5031285;28;20084;-63
2021/11/25 10:34:15;;;;;;;52.40;28.25;;;5.40;99.90;;;;;;5029073;28;20061;-63
2021/11/25 10:41:53;;;;;;;57.33;29.05;;;5.40;99.90;;;;;;5035335;28;20098;-63
2021/11/25 10:44:27;;;;;;;52.72;27.55;;;5.30;99.90;;;;;;5034032;28;20029;-63
2021/11/25 10:46:56;;;;;;;;;;;5.40;99.90;;;;;;5036229;28;20030;-63
2021/11/25 10:49:47;;;;;;;49.30;25.75;;;5.40;99.90;;;;;;5036316;28;19920;-62
2021/11/25 10:52:22;;;;;;;55.90;29.08;;;5.40;99.90;;;;;;5035300;28;20090;-63
2021/11/25 10:54:51;;;;;;;59.25;29.23;;;5.30;99.90;;;;;;5036109;28;20039;-62
2021/11/25 10:57:18;;;;;;;54.97;29.45;;;5.20;99.90;;;;;;5035199;28;20075;-63
2021/11/25 10:59:47;;;;;;;50.72;27.67;;;5.30;99.90;;;;;;5033596;28;20055;-62
2021/11/25 11:02:18;;;;;;;51.47;29.10;;;5.50;99.90;;;;;;5033223;28;20511;-63
2021/11/25 11:04:45;;;;;;;56.20;28.23;;;5.70;99.90;;;;;;5031139;28;20475;-63
2021/11/25 11:07:27;;;;;;;53.20;28.13;;;5.90;99.90;;;;;;5031210;28;20508;-63
2021/11/25 11:09:54;;;;;;;48.35;26.23;;;5.90;99.90;;;;;;5032787;28;20033;-63
2021/11/25 11:13:21;;;;;;;53.88;28.58;;;6.00;99.90;;;;;;5032046;28;20029;-63
2021/11/25 11:18:01;;;;;;;44.95;25.05;;;6.00;99.90;;;;;;5037466;28;20029;-63
2021/11/25 11:20:28;;;;;;;43.42;24.85;;;5.90;99.90;;;;;;5037616;28;20033;-63
2021/11/25 11:22:58;;;;;;;49.97;25.27;;;5.90;99.90;;;;;;5037332;28;20070;-63
2021/11/25 11:25:25;;;;;;;52.25;27.00;;;5.90;99.90;;;;;;5038099;28;20021;-63
2021/11/25 11:27:54;;;;;;;48.33;26.13;;;5.80;99.90;;;;;;5037136;28;20111;-63
2021/11/25 11:30:20;;;;;;;69.20;31.58;;;5.80;99.90;;;;;;5036899;28;20025;-63
2021/11/25 11:32:46;;;;;;;59.08;30.08;;;5.80;99.90;;;;;;5037299;28;20079;-63
2021/11/25 11:35:13;;;;;;;55.60;29.65;;;5.90;99.90;;;;;;5037565;28;20037;-63
2021/11/25 11:37:41;;;;;;;64.82;32.05;;;5.90;99.90;;;;;;5037467;28;20047;-63
2021/11/25 11:40:08;;;;;;;65.35;30.77;;;5.80;99.90;;;;;;5035921;28;20470;-63
2021/11/25 11:42:35;;;;;;;59.92;31.13;;;5.90;99.90;;;;;;5036442;28;20078;-63
2021/11/25 11:45:02;;;;;;;55.13;29.65;;;6.00;99.90;;;;;;5017909;28;20112;-63
2021/11/25 11:47:29;;;;;;;54.15;30.02;;;6.00;99.90;;;;;;5037267;28;20030;-63
2021/11/25 11:50:01;;;;;;;54.63;30.50;;;6.00;99.90;;;;;;5035949;28;20033;-62
2021/11/25 11:52:27;;;;;;;55.30;29.50;;;5.90;99.90;;;;;;5036738;28;20450;-63
2021/11/25 11:54:56;;;;;;;60.13;31.45;;;5.80;99.90;;;;;;5035442;28;20029;-63
2021/11/25 11:57:32;;;;;;;64.95;31.65;;;5.80;99.90;;;;;;5015965;28;20136;-63
2021/11/25 12:00:01;;;;;;;61.78;32.97;;;5.80;99.90;;;;;;5034359;28;20029;-63
2021/11/25 12:02:47;;;;;;;60.90;31.63;;;5.80;99.90;;;;;;5034861;28;20105;-63
2021/11/25 12:05:42;;;;;;;61.67;30.75;;;5.80;99.90;;;;;;5036672;28;20028;-64
2021/11/25 12:08:30;;;;;;;63.08;32.97;;;5.70;99.90;;;;;;5035180;28;20037;-64
2021/11/25 12:10:56;;;;;;;59.60;31.73;;;5.80;99.90;;;;;;5027463;28;20412;-62
2021/11/25 12:13:24;;;;;;;64.13;33.88;;;5.80;99.90;;;;;;5034124;28;20104;-63
2021/11/25 12:15:50;;;;;;;59.83;32.00;;;5.80;99.90;;;;;;5034515;28;20125;-63
2021/11/25 12:18:32;;;;;;;59.05;31.02;;;5.90;99.90;;;;;;5034587;28;20124;-63
2021/11/25 12:20:59;;;;;;;68.32;34.15;;;5.90;99.90;;;;;;5035969;28;20036;-63
2021/11/25 12:23:40;;;;;;;64.55;32.35;;;6.00;99.90;;;;;;5033569;28;20037;-63
2021/11/25 12:26:07;;;;;;;59.40;30.58;;;6.10;99.90;;;;;;5032910;28;20025;-63
2021/11/25 12:28:43;;;;;;;62.85;32.45;;;6.20;99.90;;;;;;5033720;28;20075;-63
2021/11/25 12:33:42;;;;;;;52.70;29.38;;;6.40;99.90;;;;;;5030442;28;20028;-63
2021/11/25 12:36:09;;;;;;;56.10;29.65;;;6.60;99.90;;;;;;5031092;28;20083;-64
2021/11/25 12:38:37;;;;;;;60.50;30.15;;;6.90;99.90;;;;;;5032150;28;20040;-64
2021/11/25 12:41:06;;;;;;;55.05;30.05;;;7.10;99.90;;;;;;5031059;28;20398;-64
2021/11/25 12:43:35;;;;;;;57.33;29.40;;;7.20;99.90;;;;;;5032541;28;20029;-63
2021/11/25 12:46:10;;;;;;;58.28;31.10;;;7.10;99.90;;;;;;5031752;28;20025;-63
2021/11/25 12:48:47;;;;;;;57.08;29.38;;;7.20;99.90;;;;;;5030321;28;20466;-63
2021/11/25 12:51:15;;;;;;;53.40;26.83;;;7.30;99.90;;;;;;5029867;28;20056;-64
2021/11/25 12:53:41;;;;;;;54.22;27.60;;;7.30;99.90;;;;;;5029094;28;20040;-63
2021/11/25 12:56:15;;;;;;;45.38;24.30;;;7.30;99.90;;;;;;5028158;28;20029;-63